createdAt,value
2022-10-01T00:01:27.622Z,11.06
2022-10-01T00:03:55.329Z,11.13
2022-10-01T00:06:24.763Z,11.32
2022-10-01T00:08:53.498Z,11.48
2022-10-01T00:11:24.637Z,11.33
2022-10-01T00:13:54.039Z,10.35
2022-10-01T00:16:23.485Z,10.06
2022-10-01T00:18:53.629Z,9.97
2022-10-01T00:21:23.561Z,10.10
2022-10-01T00:23:55.263Z,9.69
2022-10-01T00:26:28.101Z,9.43
2022-10-01T00:28:57.666Z,9.08
2022-10-01T00:31:26.075Z,9.17
2022-10-01T00:33:54.053Z,9.80
2022-10-01T00:36:22.166Z,10.49
2022-10-01T00:38:49.854Z,10.53
2022-10-01T00:41:19.351Z,10.69
2022-10-01T00:43:51.097Z,11.09
2022-10-01T00:46:23.542Z,11.29
2022-10-01T00:48:58.112Z,10.73
2022-10-01T00:51:27.483Z,10.85
2022-10-01T00:53:59.577Z,11.03
2022-10-01T00:56:27.300Z,10.80
2022-10-01T00:58:56.565Z,10.07
2022-10-01T01:01:25.241Z,9.83
2022-10-01T01:03:53.060Z,9.52
2022-10-01T01:06:20.801Z,9.17
2022-10-01T01:08:55.709Z,9.06
2022-10-01T01:11:34.302Z,9.54
2022-10-01T01:14:12.795Z,9.56
2022-10-01T01:16:48.546Z,9.46
2022-10-01T01:19:32.866Z,9.30
2022-10-01T01:22:04.176Z,9.36
2022-10-01T01:24:44.812Z,9.30
2022-10-01T01:27:25.822Z,9.50
2022-10-01T01:30:01.233Z,9.14
2022-10-01T01:32:33.661Z,9.45
2022-10-01T01:35:05.075Z,9.35
2022-10-01T01:37:38.345Z,9.07
2022-10-01T01:40:11.480Z,9.33
2022-10-01T01:42:42.822Z,9.45
2022-10-01T01:45:16.488Z,9.55
2022-10-01T01:47:46.375Z,9.38
2022-10-01T01:50:16.861Z,9.47
2022-10-01T01:52:44.639Z,9.27
2022-10-01T01:55:12.603Z,9.30
2022-10-01T01:57:43.655Z,9.30
2022-10-01T02:00:14.751Z,9.45
2022-10-01T02:02:48.047Z,9.43
2022-10-01T02:05:18.757Z,9.47
2022-10-01T02:08:18.354Z,9.57
2022-10-01T02:11:03.202Z,9.48
2022-10-01T02:13:38.950Z,9.27
2022-10-01T02:16:18.942Z,9.07
2022-10-01T02:18:50.770Z,9.39
2022-10-01T02:21:24.366Z,9.47
2022-10-01T02:23:58.058Z,9.21
2022-10-01T02:26:28.265Z,9.32
2022-10-01T02:29:01.407Z,9.26
2022-10-01T02:31:33.104Z,9.43
2022-10-01T02:34:03.386Z,9.37
2022-10-01T02:36:33.450Z,9.28
2022-10-01T02:39:03.351Z,9.54
2022-10-01T02:41:35.784Z,9.42
2022-10-01T02:44:07.874Z,9.46
2022-10-01T02:46:42.892Z,9.65
2022-10-01T02:49:13.322Z,9.68
2022-10-01T02:51:49.408Z,9.85
2022-10-01T02:54:25.295Z,9.81
2022-10-01T02:57:10.458Z,9.70
2022-10-01T02:59:38.154Z,9.63
2022-10-01T03:02:07.424Z,9.68
2022-10-01T03:04:35.171Z,9.59
2022-10-01T03:07:04.275Z,9.79
2022-10-01T03:09:32.223Z,9.79
2022-10-01T03:12:00.911Z,9.79
2022-10-01T03:14:28.962Z,10.08
2022-10-01T03:16:56.623Z,9.82
2022-10-01T03:19:25.615Z,10.01
2022-10-01T03:21:53.275Z,10.01
2022-10-01T03:24:20.866Z,10.03
2022-10-01T03:26:49.047Z,9.91
2022-10-01T03:29:16.700Z,9.89
2022-10-01T03:31:44.495Z,9.95
2022-10-01T03:34:13.233Z,9.91
2022-10-01T03:36:42.374Z,10.33
2022-10-01T03:39:10.125Z,9.69
2022-10-01T03:41:37.849Z,10.04
2022-10-01T03:44:05.573Z,9.87
2022-10-01T03:46:33.318Z,9.64
2022-10-01T03:49:01.058Z,9.84
2022-10-01T03:51:29.182Z,9.71
2022-10-01T03:53:59.400Z,9.83
2022-10-01T03:56:27.737Z,9.59
2022-10-01T03:58:55.449Z,9.66
2022-10-01T04:01:23.325Z,9.65
2022-10-01T04:03:51.126Z,9.73
2022-10-01T04:06:19.127Z,9.68
2022-10-01T04:08:46.785Z,9.85
2022-10-01T04:11:16.036Z,9.79
2022-10-01T04:13:43.697Z,9.80
2022-10-01T04:16:11.413Z,9.73
2022-10-01T04:18:39.344Z,9.81
2022-10-01T04:21:07.405Z,9.95
2022-10-01T04:23:35.277Z,9.99
2022-10-01T04:26:03.549Z,9.96
2022-10-01T04:28:32.991Z,9.95
2022-10-01T04:31:14.807Z,10.08
2022-10-01T04:33:42.675Z,10.14
2022-10-01T04:36:10.392Z,10.06
2022-10-01T04:38:38.125Z,9.98
2022-10-01T04:41:06.052Z,10.10
2022-10-01T04:43:35.119Z,10.13
2022-10-01T04:46:02.822Z,10.15
2022-10-01T04:48:30.549Z,10.24
2022-10-01T04:51:00.682Z,10.06
2022-10-01T04:53:28.735Z,9.99
2022-10-01T04:55:56.453Z,10.11
2022-10-01T04:58:24.106Z,10.25
2022-10-01T05:00:53.224Z,10.17
2022-10-01T05:03:21.132Z,10.37
2022-10-01T05:05:48.847Z,10.17
2022-10-01T05:08:16.691Z,10.23
2022-10-01T05:10:44.466Z,10.48
2022-10-01T05:13:12.150Z,10.31
2022-10-01T05:15:39.829Z,10.40
2022-10-01T05:18:09.074Z,10.27
2022-10-01T05:20:37.739Z,10.26
2022-10-01T05:23:05.636Z,10.30
2022-10-01T05:25:33.329Z,10.16
2022-10-01T05:28:05.029Z,10.07
2022-10-01T05:30:33.163Z,10.22
2022-10-01T05:33:02.534Z,10.34
2022-10-01T05:35:32.275Z,10.15
2022-10-01T05:38:01.779Z,10.18
2022-10-01T05:40:31.005Z,10.63
2022-10-01T05:43:00.045Z,10.35
2022-10-01T05:45:28.816Z,10.28
2022-10-01T05:48:01.709Z,10.64
2022-10-01T05:50:32.099Z,10.55
2022-10-01T05:52:59.997Z,10.46
2022-10-01T05:55:31.719Z,10.44
2022-10-01T05:58:01.207Z,10.50
2022-10-01T06:00:29.882Z,10.17
2022-10-01T06:02:58.506Z,9.97
2022-10-01T06:05:27.219Z,9.90
2022-10-01T06:07:56.481Z,9.97
2022-10-01T06:10:25.012Z,10.00
2022-10-01T06:12:52.985Z,9.88
2022-10-01T06:15:20.679Z,9.98
2022-10-01T06:17:48.330Z,9.94
2022-10-01T06:20:19.338Z,10.07
2022-10-01T06:22:54.865Z,10.02
2022-10-01T06:25:24.596Z,10.07
2022-10-01T06:27:54.220Z,10.19
2022-10-01T06:30:22.081Z,10.38
2022-10-01T06:32:49.837Z,10.39
2022-10-01T06:35:17.557Z,10.51
2022-10-01T06:37:45.267Z,10.52
2022-10-01T06:40:13.034Z,10.61
2022-10-01T06:42:48.266Z,10.51
2022-10-01T06:45:17.869Z,10.69
2022-10-01T06:47:45.648Z,10.65
2022-10-01T06:50:13.353Z,10.64
2022-10-01T06:52:49.876Z,10.65
2022-10-01T06:55:18.145Z,10.72
2022-10-01T06:57:47.968Z,10.83
2022-10-01T07:00:15.845Z,10.96
2022-10-01T07:02:43.598Z,10.81
2022-10-01T07:05:12.366Z,10.82
2022-10-01T07:07:40.309Z,10.77
2022-10-01T07:10:10.372Z,10.86
2022-10-01T07:12:39.567Z,10.82
2022-10-01T07:15:10.045Z,11.20
2022-10-01T07:17:44.910Z,10.96
2022-10-01T07:20:14.703Z,10.66
2022-10-01T07:22:42.710Z,10.57
2022-10-01T07:25:10.806Z,10.58
2022-10-01T07:27:39.109Z,10.42
2022-10-01T07:30:09.803Z,10.22
2022-10-01T07:32:37.510Z,10.27
2022-10-01T07:35:06.827Z,10.55
2022-10-01T07:37:34.602Z,10.86
2022-10-01T07:40:07.189Z,10.83
2022-10-01T07:42:35.447Z,10.75
2022-10-01T07:45:04.298Z,10.83
2022-10-01T07:47:33.512Z,11.12
2022-10-01T07:50:01.288Z,10.79
2022-10-01T07:52:29.120Z,10.79
2022-10-01T07:54:56.851Z,11.21
2022-10-01T07:57:24.637Z,10.96
2022-10-01T07:59:55.664Z,10.79
2022-10-01T08:02:23.819Z,10.78
2022-10-01T08:05:10.372Z,11.02
2022-10-01T08:07:38.127Z,11.17
2022-10-01T08:10:06.686Z,10.99
2022-10-01T08:12:34.447Z,11.03
2022-10-01T08:15:03.080Z,11.25
2022-10-01T08:17:31.860Z,11.16
2022-10-01T08:20:01.372Z,10.88
2022-10-01T08:22:29.093Z,10.59
2022-10-01T08:24:56.904Z,10.74
2022-10-01T08:27:25.318Z,10.98
2022-10-01T08:29:53.433Z,10.72
2022-10-01T08:32:22.017Z,10.57
2022-10-01T08:34:53.332Z,10.59
2022-10-01T08:37:28.188Z,10.84
2022-10-01T08:39:56.640Z,10.76
2022-10-01T08:42:39.503Z,10.47
2022-10-01T08:45:14.169Z,10.46
2022-10-01T08:47:44.976Z,10.42
2022-10-01T08:50:18.047Z,10.50
2022-10-01T08:52:53.382Z,10.83
2022-10-01T08:55:24.851Z,10.58
2022-10-01T08:57:55.922Z,10.99
2022-10-01T09:00:23.948Z,10.86
2022-10-01T09:02:53.127Z,10.85
2022-10-01T09:05:25.696Z,10.83
2022-10-01T09:08:09.492Z,10.99
2022-10-01T09:10:45.632Z,11.13
2022-10-01T09:13:39.633Z,10.96
2022-10-01T09:16:19.132Z,10.95
2022-10-01T09:19:01.221Z,11.11
2022-10-01T09:21:44.545Z,11.18
2022-10-01T09:24:16.497Z,11.31
2022-10-01T09:26:49.116Z,11.37
2022-10-01T09:29:22.937Z,11.18
2022-10-01T09:31:54.084Z,11.85
2022-10-01T09:34:29.932Z,11.26
2022-10-01T09:37:05.552Z,11.42
2022-10-01T09:39:39.297Z,11.19
2022-10-01T09:42:07.318Z,10.85
2022-10-01T09:44:35.518Z,10.69
2022-10-01T09:47:03.193Z,10.77
2022-10-01T09:49:35.038Z,11.21
2022-10-01T09:52:07.181Z,11.55
2022-10-01T09:54:43.022Z,11.56
2022-10-01T09:57:14.845Z,11.32
2022-10-01T09:59:48.310Z,11.31
2022-10-01T10:02:21.239Z,11.17
2022-10-01T10:04:59.439Z,11.20
2022-10-01T10:07:27.651Z,11.18
2022-10-01T10:09:56.768Z,11.17
2022-10-01T10:12:29.286Z,11.58
2022-10-01T10:14:58.954Z,11.66
2022-10-01T10:17:26.819Z,11.41
2022-10-01T10:19:57.909Z,11.26
2022-10-01T10:22:27.630Z,11.04
2022-10-01T10:24:58.501Z,11.30
2022-10-01T10:27:29.003Z,11.58
2022-10-01T10:30:04.164Z,11.64
2022-10-01T10:32:32.154Z,11.72
2022-10-01T10:35:05.516Z,11.91
2022-10-01T10:37:37.366Z,11.71
2022-10-01T10:40:08.968Z,11.96
2022-10-01T10:42:38.867Z,11.96
2022-10-01T10:45:17.898Z,11.87
2022-10-01T10:47:48.065Z,12.23
2022-10-01T10:50:30.103Z,12.11
2022-10-01T10:52:58.710Z,12.20
2022-10-01T10:55:30.953Z,12.31
2022-10-01T10:58:11.512Z,12.03
2022-10-01T11:00:48.040Z,12.18
2022-10-01T11:03:17.907Z,12.09
2022-10-01T11:05:45.696Z,12.16
2022-10-01T11:08:20.055Z,12.00
2022-10-01T11:10:59.097Z,12.15
2022-10-01T11:13:44.860Z,12.15
2022-10-01T11:16:30.529Z,12.26
2022-10-01T11:19:09.224Z,12.17
2022-10-01T11:21:51.687Z,12.08
2022-10-01T11:24:38.933Z,11.99
2022-10-01T11:27:17.529Z,12.11
2022-10-01T11:30:01.382Z,12.10
2022-10-01T11:32:38.517Z,12.19
2022-10-01T11:35:29.550Z,12.11
2022-10-01T11:38:29.801Z,12.13
2022-10-01T11:41:05.027Z,12.17
2022-10-01T11:43:39.006Z,12.12
2022-10-01T11:46:12.221Z,12.20
2022-10-01T11:48:45.129Z,12.19
2022-10-01T11:51:17.300Z,12.22
2022-10-01T11:53:50.362Z,12.61
2022-10-01T11:56:40.821Z,12.38
2022-10-01T11:59:17.759Z,12.36
2022-10-01T12:01:52.407Z,12.41
2022-10-01T12:04:31.617Z,12.41
2022-10-01T12:07:06.263Z,12.41
2022-10-01T12:09:47.159Z,12.45
2022-10-01T12:12:20.405Z,12.59
2022-10-01T12:14:53.504Z,12.55
2022-10-01T12:17:27.277Z,12.75
2022-10-01T12:19:58.254Z,12.87
2022-10-01T12:22:29.852Z,12.96
2022-10-01T12:24:57.895Z,13.39
2022-10-01T12:27:40.843Z,13.36
2022-10-01T12:30:13.676Z,13.39
2022-10-01T12:32:58.873Z,13.42
2022-10-01T12:35:39.019Z,13.54
2022-10-01T12:38:18.346Z,13.04
2022-10-01T12:40:50.929Z,13.19
2022-10-01T12:43:53.020Z,13.46
2022-10-01T12:46:34.107Z,13.61
2022-10-01T12:49:14.792Z,13.70
2022-10-01T12:51:45.711Z,13.72
2022-10-01T12:54:34.275Z,13.82
2022-10-01T12:57:12.457Z,13.75
2022-10-01T12:59:57.589Z,13.92
2022-10-01T13:02:53.052Z,13.89
2022-10-01T13:05:28.447Z,13.90
2022-10-01T13:08:08.868Z,13.94
2022-10-01T13:10:48.770Z,14.06
2022-10-01T13:13:22.049Z,14.00
2022-10-01T13:15:56.037Z,14.05
2022-10-01T13:18:36.999Z,14.19
2022-10-01T13:21:11.758Z,14.27
2022-10-01T13:23:46.143Z,14.51
2022-10-01T13:26:19.325Z,14.52
2022-10-01T13:29:15.959Z,14.69
2022-10-01T13:31:55.050Z,14.72
2022-10-01T13:34:29.131Z,14.80
2022-10-01T13:36:56.837Z,15.02
2022-10-01T13:39:25.923Z,15.42
2022-10-01T13:41:58.961Z,15.48
2022-10-01T13:44:33.852Z,15.23
2022-10-01T13:47:05.964Z,15.20
2022-10-01T13:49:37.462Z,15.36
2022-10-01T13:52:05.954Z,15.33
2022-10-01T13:54:39.918Z,15.31
2022-10-01T13:57:11.027Z,15.13
2022-10-01T13:59:39.707Z,15.42
2022-10-01T14:02:29.198Z,15.31
2022-10-01T14:05:06.661Z,15.28
2022-10-01T14:07:39.878Z,15.42
2022-10-01T14:10:14.782Z,15.28
2022-10-01T14:13:03.591Z,15.32
2022-10-01T14:16:03.322Z,15.38
2022-10-01T14:18:35.465Z,15.20
2022-10-01T14:21:13.389Z,15.43
2022-10-01T14:23:50.120Z,15.41
2022-10-01T14:26:24.157Z,15.39
2022-10-01T14:29:04.881Z,15.38
2022-10-01T14:31:50.779Z,15.33
2022-10-01T14:34:42.304Z,15.50
2022-10-01T14:37:17.263Z,15.89
2022-10-01T14:39:45.969Z,16.20
2022-10-01T14:42:17.410Z,16.09
2022-10-01T14:44:46.829Z,16.08
2022-10-01T14:47:19.331Z,15.90
2022-10-01T14:49:47.871Z,15.81
2022-10-01T14:52:23.084Z,15.86
2022-10-01T14:54:59.062Z,15.75
2022-10-01T14:57:34.969Z,15.93
2022-10-01T15:00:07.969Z,15.99
2022-10-01T15:02:35.749Z,16.30
2022-10-01T15:05:20.068Z,16.19
2022-10-01T15:07:49.608Z,15.89
2022-10-01T15:10:18.999Z,15.71
2022-10-01T15:12:48.677Z,15.47
2022-10-01T15:15:19.452Z,15.41
2022-10-01T15:17:47.782Z,15.43
2022-10-01T15:20:16.165Z,15.35
2022-10-01T15:22:45.406Z,15.47
2022-10-01T15:25:22.175Z,15.30
2022-10-01T15:27:50.414Z,15.20
2022-10-01T15:30:19.348Z,15.08
2022-10-01T15:32:49.514Z,15.21
2022-10-01T15:35:21.081Z,15.10
2022-10-01T15:37:50.628Z,15.08
2022-10-01T15:40:35.339Z,14.96
2022-10-01T15:43:20.805Z,15.01
2022-10-01T15:46:34.855Z,14.94
2022-10-01T15:49:16.745Z,14.92
2022-10-01T15:52:06.788Z,14.83
2022-10-01T15:54:35.780Z,14.84
2022-10-01T15:57:06.378Z,14.84
2022-10-01T15:59:35.537Z,14.81
2022-10-01T16:02:09.576Z,14.93
2022-10-01T16:04:37.550Z,14.93
2022-10-01T16:07:05.305Z,14.81
2022-10-01T16:09:33.121Z,14.85
2022-10-01T16:12:04.173Z,14.83
2022-10-01T16:14:36.728Z,14.83
2022-10-01T16:17:28.284Z,14.73
2022-10-01T16:19:57.811Z,14.80
2022-10-01T16:22:28.215Z,14.83
2022-10-01T16:24:57.670Z,14.91
2022-10-01T16:27:28.075Z,14.78
2022-10-01T16:30:04.194Z,14.80
2022-10-01T16:32:33.094Z,14.73
2022-10-01T16:35:19.314Z,14.74
2022-10-01T16:37:49.972Z,14.78
2022-10-01T16:40:18.486Z,14.75
2022-10-01T16:42:47.154Z,14.73
2022-10-01T16:45:18.912Z,14.69
2022-10-01T16:47:47.347Z,14.61
2022-10-01T16:50:17.883Z,14.58
2022-10-01T16:52:45.630Z,14.57
2022-10-01T16:55:18.226Z,14.61
2022-10-01T16:57:45.989Z,14.52
2022-10-01T17:00:16.550Z,14.57
2022-10-01T17:02:44.871Z,14.47
2022-10-01T17:05:19.715Z,14.52
2022-10-01T17:07:47.444Z,14.48
2022-10-01T17:10:17.269Z,14.45
2022-10-01T17:12:47.865Z,14.51
2022-10-01T17:15:19.304Z,14.42
2022-10-01T17:17:47.962Z,14.44
2022-10-01T17:20:15.740Z,14.45
2022-10-01T17:22:43.785Z,14.42
2022-10-01T17:25:15.906Z,14.41
2022-10-01T17:27:43.631Z,14.36
2022-10-01T17:30:11.919Z,14.38
2022-10-01T17:32:42.867Z,14.38
2022-10-01T17:35:11.393Z,14.32
2022-10-01T17:37:39.154Z,14.32
2022-10-01T17:40:08.668Z,14.28
2022-10-01T17:42:36.667Z,14.20
2022-10-01T17:45:06.922Z,14.18
2022-10-01T17:47:34.802Z,14.16
2022-10-01T17:50:05.132Z,14.12
2022-10-01T17:52:33.139Z,14.13
2022-10-01T17:55:00.841Z,13.91
2022-10-01T17:57:28.703Z,13.73
2022-10-01T17:59:56.606Z,13.69
2022-10-01T18:02:40.863Z,13.69
2022-10-01T18:05:12.389Z,13.69
2022-10-01T18:07:40.673Z,13.74
2022-10-01T18:10:11.771Z,13.84
2022-10-01T18:12:39.724Z,13.89
2022-10-01T18:15:08.470Z,13.91
2022-10-01T18:17:42.922Z,14.00
2022-10-01T18:20:12.673Z,13.91
2022-10-01T18:22:40.438Z,13.97
2022-10-01T18:25:08.795Z,13.98
2022-10-01T18:27:36.506Z,14.00
2022-10-01T18:30:04.331Z,13.96
2022-10-01T18:32:37.503Z,13.90
2022-10-01T18:35:15.372Z,13.96
2022-10-01T18:37:50.707Z,13.98
2022-10-01T18:40:20.664Z,13.93
2022-10-01T18:42:53.623Z,13.89
2022-10-01T18:45:31.611Z,13.73
2022-10-01T18:48:11.545Z,13.77
2022-10-01T18:50:44.205Z,13.69
2022-10-01T18:53:30.225Z,13.63
2022-10-01T18:56:14.939Z,13.64
2022-10-01T18:58:53.459Z,13.50
2022-10-01T19:01:28.749Z,13.48
2022-10-01T19:04:13.091Z,13.47
2022-10-01T19:06:56.020Z,13.52
2022-10-01T19:09:41.503Z,13.47
2022-10-01T19:12:24.294Z,13.45
2022-10-01T19:15:00.816Z,13.41
2022-10-01T19:17:47.029Z,13.43
2022-10-01T19:20:26.127Z,13.44
2022-10-01T19:23:19.530Z,13.52
2022-10-01T19:25:52.283Z,13.51
2022-10-01T19:28:35.458Z,13.45
2022-10-01T19:31:13.468Z,13.50
2022-10-01T19:33:47.823Z,13.57
2022-10-01T19:36:19.059Z,13.53
2022-10-01T19:38:49.869Z,13.55
2022-10-01T19:41:25.662Z,13.60
2022-10-01T19:43:57.409Z,13.73
2022-10-01T19:46:30.588Z,13.64
2022-10-01T19:49:05.310Z,13.66
2022-10-01T19:51:36.118Z,13.62
2022-10-01T19:54:04.429Z,13.70
2022-10-01T19:56:37.920Z,13.71
2022-10-01T19:59:34.695Z,12.81
2022-10-01T20:02:13.660Z,12.57
2022-10-01T20:04:51.731Z,12.90
2022-10-01T20:07:24.592Z,12.88
2022-10-01T20:10:05.442Z,12.89
2022-10-01T20:12:48.721Z,12.79
2022-10-01T20:15:35.088Z,12.41
2022-10-01T20:18:14.632Z,12.14
2022-10-01T20:20:48.181Z,12.42
2022-10-01T20:23:38.314Z,12.67
2022-10-01T20:26:17.449Z,12.70
2022-10-01T20:29:06.002Z,12.68
2022-10-01T20:31:39.390Z,12.86
2022-10-01T20:34:17.347Z,12.70
2022-10-01T20:36:51.015Z,12.76
2022-10-01T20:39:22.538Z,13.17
2022-10-01T20:41:53.188Z,13.17
2022-10-01T20:44:25.786Z,12.88
2022-10-01T20:46:57.044Z,12.80
2022-10-01T20:49:30.940Z,12.79
2022-10-01T20:52:03.538Z,12.78
2022-10-01T20:54:36.779Z,12.79
2022-10-01T20:57:10.870Z,12.79
2022-10-01T20:59:43.535Z,12.81
2022-10-01T21:02:29.692Z,12.78
2022-10-01T21:05:04.347Z,12.80
2022-10-01T21:07:38.857Z,12.83
2022-10-01T21:10:18.146Z,13.33
2022-10-01T21:12:51.730Z,13.50
2022-10-01T21:15:23.539Z,13.73
2022-10-01T21:17:58.500Z,13.61
2022-10-01T21:20:52.706Z,13.93
2022-10-01T21:23:38.412Z,13.99
2022-10-01T21:26:16.171Z,14.06
2022-10-01T21:29:03.590Z,14.21
2022-10-01T21:31:45.674Z,13.74
2022-10-01T21:34:17.662Z,13.43
2022-10-01T21:36:56.719Z,12.89
2022-10-01T21:39:33.150Z,12.80
2022-10-01T21:42:14.759Z,12.78
2022-10-01T21:45:01.956Z,12.85
2022-10-01T21:47:43.815Z,12.82
2022-10-01T21:50:23.284Z,12.81
2022-10-01T21:53:10.713Z,12.84
2022-10-01T21:56:08.010Z,12.92
2022-10-01T21:58:50.732Z,13.00
2022-10-01T22:01:25.889Z,13.08
2022-10-01T22:04:02.441Z,13.05
2022-10-01T22:06:36.114Z,13.13
2022-10-01T22:09:11.073Z,13.09
2022-10-01T22:11:41.910Z,13.13
2022-10-01T22:14:16.158Z,13.20
2022-10-01T22:16:50.686Z,13.18
2022-10-01T22:19:24.265Z,13.31
2022-10-01T22:21:56.957Z,13.27
2022-10-01T22:24:31.119Z,13.42
2022-10-01T22:27:06.451Z,13.30
2022-10-01T22:29:38.768Z,13.55
2022-10-01T22:32:09.781Z,13.44
2022-10-01T22:34:46.057Z,13.54
2022-10-01T22:37:19.314Z,13.48
2022-10-01T22:39:51.150Z,13.47
2022-10-01T22:42:24.127Z,13.52
2022-10-01T22:44:52.339Z,13.55
2022-10-01T22:47:38.911Z,13.65
2022-10-01T22:50:21.335Z,13.46
2022-10-01T22:53:04.849Z,13.51
2022-10-01T22:55:41.904Z,13.51
2022-10-01T22:58:25.085Z,13.45
2022-10-01T23:01:01.593Z,13.40
2022-10-01T23:03:43.345Z,13.43
2022-10-01T23:06:22.478Z,13.51
2022-10-01T23:08:59.305Z,13.40
2022-10-01T23:11:33.375Z,13.41
2022-10-01T23:14:09.761Z,13.34
2022-10-01T23:16:45.098Z,13.39
2022-10-01T23:19:29.335Z,13.45
2022-10-01T23:22:06.044Z,13.59
2022-10-01T23:24:52.440Z,13.47
2022-10-01T23:27:31.817Z,13.51
2022-10-01T23:30:11.575Z,13.51
2022-10-01T23:33:11.436Z,13.71
2022-10-01T23:35:48.537Z,13.80
2022-10-01T23:38:40.576Z,13.61
2022-10-01T23:41:18.078Z,13.44
2022-10-01T23:43:49.777Z,13.48
2022-10-01T23:46:22.944Z,13.54
2022-10-01T23:48:57.035Z,13.48
2022-10-01T23:51:29.378Z,13.43
2022-10-01T23:54:06.585Z,13.50
2022-10-01T23:56:48.879Z,13.57
2022-10-01T23:59:23.459Z,13.57
